sensor_id;sensor_type;location;lat;lon;timestamp;P1;durP1;ratioP1;P2;durP2;ratioP2
36747;SDS011;22716;51.556;5.080;2023-09-07T00:00:23;11.03;;;7.33;;
36747;SDS011;22716;51.556;5.080;2023-09-07T00:02:52;11.47;;;8.60;;
36747;SDS011;22716;51.556;5.080;2023-09-07T00:05:21;11.33;;;7.60;;
36747;SDS011;22716;51.556;5.080;2023-09-07T00:07:52;10.83;;;7.60;;
36747;SDS011;22716;51.556;5.080;2023-09-07T00:10:21;12.27;;;8.02;;
36747;SDS011;22716;51.556;5.080;2023-09-07T00:12:51;10.93;;;8.50;;
36747;SDS011;22716;51.556;5.080;2023-09-07T00:15:19;13.35;;;7.57;;
36747;SDS011;22716;51.556;5.080;2023-09-07T00:17:48;10.97;;;7.97;;
36747;SDS011;22716;51.556;5.080;2023-09-07T00:20:17;9.93;;;7.53;;
36747;SDS011;22716;51.556;5.080;2023-09-07T00:22:46;14.70;;;9.40;;
36747;SDS011;22716;51.556;5.080;2023-09-07T00:25:18;11.40;;;7.97;;
36747;SDS011;22716;51.556;5.080;2023-09-07T00:27:46;12.63;;;8.03;;
36747;SDS011;22716;51.556;5.080;2023-09-07T00:30:15;10.43;;;8.17;;
36747;SDS011;22716;51.556;5.080;2023-09-07T00:32:43;9.77;;;8.47;;
36747;SDS011;22716;51.556;5.080;2023-09-07T00:35:12;10.97;;;7.80;;
36747;SDS011;22716;51.556;5.080;2023-09-07T00:37:41;10.77;;;8.37;;
36747;SDS011;22716;51.556;5.080;2023-09-07T00:40:10;11.70;;;7.87;;
36747;SDS011;22716;51.556;5.080;2023-09-07T00:42:41;10.07;;;7.70;;
36747;SDS011;22716;51.556;5.080;2023-09-07T00:45:10;12.98;;;9.25;;
36747;SDS011;22716;51.556;5.080;2023-09-07T00:47:38;13.90;;;8.73;;
36747;SDS011;22716;51.556;5.080;2023-09-07T00:50:08;12.67;;;7.80;;
36747;SDS011;22716;51.556;5.080;2023-09-07T00:52:39;13.23;;;8.30;;
36747;SDS011;22716;51.556;5.080;2023-09-07T00:55:10;11.00;;;8.07;;
36747;SDS011;22716;51.556;5.080;2023-09-07T00:57:41;10.38;;;7.53;;
36747;SDS011;22716;51.556;5.080;2023-09-07T01:00:11;13.32;;;8.38;;
36747;SDS011;22716;51.556;5.080;2023-09-07T01:02:40;8.68;;;7.38;;
36747;SDS011;22716;51.556;5.080;2023-09-07T01:05:10;12.77;;;8.80;;
36747;SDS011;22716;51.556;5.080;2023-09-07T01:07:40;15.30;;;8.48;;
36747;SDS011;22716;51.556;5.080;2023-09-07T01:10:14;9.70;;;7.50;;
36747;SDS011;22716;51.556;5.080;2023-09-07T01:12:46;10.67;;;8.50;;
36747;SDS011;22716;51.556;5.080;2023-09-07T01:15:15;14.20;;;8.57;;
36747;SDS011;22716;51.556;5.080;2023-09-07T01:17:43;11.07;;;8.32;;
36747;SDS011;22716;51.556;5.080;2023-09-07T01:20:13;12.98;;;9.40;;
36747;SDS011;22716;51.556;5.080;2023-09-07T01:22:46;11.17;;;7.90;;
36747;SDS011;22716;51.556;5.080;2023-09-07T01:25:15;11.87;;;7.90;;
36747;SDS011;22716;51.556;5.080;2023-09-07T01:27:45;11.13;;;9.18;;
36747;SDS011;22716;51.556;5.080;2023-09-07T01:30:15;13.77;;;8.93;;
36747;SDS011;22716;51.556;5.080;2023-09-07T01:32:46;12.07;;;9.10;;
36747;SDS011;22716;51.556;5.080;2023-09-07T01:35:15;14.73;;;8.57;;
36747;SDS011;22716;51.556;5.080;2023-09-07T01:37:49;12.20;;;8.00;;
36747;SDS011;22716;51.556;5.080;2023-09-07T01:40:18;11.20;;;8.63;;
36747;SDS011;22716;51.556;5.080;2023-09-07T01:42:46;11.20;;;8.90;;
36747;SDS011;22716;51.556;5.080;2023-09-07T01:45:15;12.40;;;9.13;;
36747;SDS011;22716;51.556;5.080;2023-09-07T01:47:43;14.43;;;8.93;;
36747;SDS011;22716;51.556;5.080;2023-09-07T01:50:12;12.70;;;9.20;;
36747;SDS011;22716;51.556;5.080;2023-09-07T01:52:41;12.27;;;9.83;;
36747;SDS011;22716;51.556;5.080;2023-09-07T01:55:13;12.97;;;10.10;;
36747;SDS011;22716;51.556;5.080;2023-09-07T01:57:41;14.23;;;10.53;;
36747;SDS011;22716;51.556;5.080;2023-09-07T02:00:10;10.73;;;9.63;;
36747;SDS011;22716;51.556;5.080;2023-09-07T02:02:40;13.90;;;9.93;;
36747;SDS011;22716;51.556;5.080;2023-09-07T02:05:08;12.45;;;9.02;;
36747;SDS011;22716;51.556;5.080;2023-09-07T02:07:38;12.23;;;9.50;;
36747;SDS011;22716;51.556;5.080;2023-09-07T02:10:06;14.77;;;10.33;;
36747;SDS011;22716;51.556;5.080;2023-09-07T02:12:38;13.07;;;9.50;;
36747;SDS011;22716;51.556;5.080;2023-09-07T02:15:07;18.00;;;9.47;;
36747;SDS011;22716;51.556;5.080;2023-09-07T02:17:36;13.20;;;9.43;;
36747;SDS011;22716;51.556;5.080;2023-09-07T02:20:06;10.23;;;9.13;;
36747;SDS011;22716;51.556;5.080;2023-09-07T02:22:36;13.53;;;9.40;;
36747;SDS011;22716;51.556;5.080;2023-09-07T02:25:05;14.20;;;9.82;;
36747;SDS011;22716;51.556;5.080;2023-09-07T02:27:34;12.93;;;10.23;;
36747;SDS011;22716;51.556;5.080;2023-09-07T02:30:06;14.33;;;10.20;;
36747;SDS011;22716;51.556;5.080;2023-09-07T02:32:36;12.70;;;9.57;;
36747;SDS011;22716;51.556;5.080;2023-09-07T02:35:05;15.07;;;10.93;;
36747;SDS011;22716;51.556;5.080;2023-09-07T02:37:35;11.82;;;10.27;;
36747;SDS011;22716;51.556;5.080;2023-09-07T02:40:04;12.57;;;9.97;;
36747;SDS011;22716;51.556;5.080;2023-09-07T02:42:34;13.00;;;10.02;;
36747;SDS011;22716;51.556;5.080;2023-09-07T02:45:06;12.57;;;10.07;;
36747;SDS011;22716;51.556;5.080;2023-09-07T02:47:35;12.48;;;10.60;;
36747;SDS011;22716;51.556;5.080;2023-09-07T02:50:04;17.63;;;9.97;;
36747;SDS011;22716;51.556;5.080;2023-09-07T02:52:34;14.70;;;10.90;;
36747;SDS011;22716;51.556;5.080;2023-09-07T02:55:03;13.88;;;9.98;;
36747;SDS011;22716;51.556;5.080;2023-09-07T02:57:34;15.87;;;11.03;;
36747;SDS011;22716;51.556;5.080;2023-09-07T03:00:06;15.20;;;9.90;;
36747;SDS011;22716;51.556;5.080;2023-09-07T03:02:37;12.27;;;10.23;;
36747;SDS011;22716;51.556;5.080;2023-09-07T03:05:06;16.07;;;10.67;;
36747;SDS011;22716;51.556;5.080;2023-09-07T03:07:35;12.87;;;10.37;;
36747;SDS011;22716;51.556;5.080;2023-09-07T03:10:05;13.53;;;11.00;;
36747;SDS011;22716;51.556;5.080;2023-09-07T03:12:33;13.20;;;9.65;;
36747;SDS011;22716;51.556;5.080;2023-09-07T03:15:02;18.87;;;9.73;;
36747;SDS011;22716;51.556;5.080;2023-09-07T03:17:34;15.75;;;11.35;;
36747;SDS011;22716;51.556;5.080;2023-09-07T03:20:03;11.67;;;10.30;;
36747;SDS011;22716;51.556;5.080;2023-09-07T03:22:40;14.87;;;10.77;;
36747;SDS011;22716;51.556;5.080;2023-09-07T03:25:09;12.90;;;9.52;;
36747;SDS011;22716;51.556;5.080;2023-09-07T03:27:38;14.20;;;10.07;;
36747;SDS011;22716;51.556;5.080;2023-09-07T03:30:10;14.88;;;11.10;;
36747;SDS011;22716;51.556;5.080;2023-09-07T03:32:39;12.77;;;9.80;;
36747;SDS011;22716;51.556;5.080;2023-09-07T03:35:08;14.40;;;11.02;;
36747;SDS011;22716;51.556;5.080;2023-09-07T03:37:37;13.23;;;9.37;;
36747;SDS011;22716;51.556;5.080;2023-09-07T03:40:06;13.27;;;10.47;;
36747;SDS011;22716;51.556;5.080;2023-09-07T03:42:37;12.98;;;10.27;;
36747;SDS011;22716;51.556;5.080;2023-09-07T03:45:06;11.75;;;10.48;;
36747;SDS011;22716;51.556;5.080;2023-09-07T03:47:38;13.03;;;11.63;;
36747;SDS011;22716;51.556;5.080;2023-09-07T03:50:07;14.10;;;11.17;;
36747;SDS011;22716;51.556;5.080;2023-09-07T03:52:36;17.33;;;11.50;;
36747;SDS011;22716;51.556;5.080;2023-09-07T03:55:05;17.00;;;11.93;;
36747;SDS011;22716;51.556;5.080;2023-09-07T03:57:35;13.90;;;11.57;;
36747;SDS011;22716;51.556;5.080;2023-09-07T04:00:05;13.20;;;11.37;;
36747;SDS011;22716;51.556;5.080;2023-09-07T04:02:38;14.10;;;11.37;;
36747;SDS011;22716;51.556;5.080;2023-09-07T04:05:07;17.13;;;12.27;;
36747;SDS011;22716;51.556;5.080;2023-09-07T04:07:36;17.17;;;11.40;;
36747;SDS011;22716;51.556;5.080;2023-09-07T04:10:05;14.77;;;11.07;;
36747;SDS011;22716;51.556;5.080;2023-09-07T04:12:34;18.05;;;10.75;;
36747;SDS011;22716;51.556;5.080;2023-09-07T04:15:03;13.33;;;11.00;;
36747;SDS011;22716;51.556;5.080;2023-09-07T04:17:33;14.33;;;10.60;;
36747;SDS011;22716;51.556;5.080;2023-09-07T04:20:09;12.75;;;10.27;;
36747;SDS011;22716;51.556;5.080;2023-09-07T04:22:38;11.98;;;9.70;;
36747;SDS011;22716;51.556;5.080;2023-09-07T04:25:08;12.90;;;10.38;;
36747;SDS011;22716;51.556;5.080;2023-09-07T04:27:36;13.53;;;9.93;;
36747;SDS011;22716;51.556;5.080;2023-09-07T04:30:06;13.05;;;11.38;;
36747;SDS011;22716;51.556;5.080;2023-09-07T04:32:35;15.03;;;10.53;;
36747;SDS011;22716;51.556;5.080;2023-09-07T04:35:04;14.55;;;10.88;;
36747;SDS011;22716;51.556;5.080;2023-09-07T04:37:36;12.85;;;10.52;;
36747;SDS011;22716;51.556;5.080;2023-09-07T04:40:06;14.40;;;10.97;;
36747;SDS011;22716;51.556;5.080;2023-09-07T04:42:36;19.00;;;10.23;;
36747;SDS011;22716;51.556;5.080;2023-09-07T04:45:05;11.48;;;9.52;;
36747;SDS011;22716;51.556;5.080;2023-09-07T04:47:35;15.45;;;10.73;;
36747;SDS011;22716;51.556;5.080;2023-09-07T04:50:04;14.05;;;10.20;;
36747;SDS011;22716;51.556;5.080;2023-09-07T04:52:36;10.30;;;9.20;;
36747;SDS011;22716;51.556;5.080;2023-09-07T04:55:05;11.85;;;9.60;;
36747;SDS011;22716;51.556;5.080;2023-09-07T04:57:36;12.83;;;9.83;;
36747;SDS011;22716;51.556;5.080;2023-09-07T05:00:05;13.53;;;9.30;;
36747;SDS011;22716;51.556;5.080;2023-09-07T05:02:35;13.10;;;9.50;;
36747;SDS011;22716;51.556;5.080;2023-09-07T05:05:07;12.82;;;9.88;;
36747;SDS011;22716;51.556;5.080;2023-09-07T05:07:39;13.18;;;9.40;;
36747;SDS011;22716;51.556;5.080;2023-09-07T05:10:07;15.57;;;10.80;;
36747;SDS011;22716;51.556;5.080;2023-09-07T05:12:37;18.57;;;9.23;;
36747;SDS011;22716;51.556;5.080;2023-09-07T05:15:06;10.65;;;8.52;;
36747;SDS011;22716;51.556;5.080;2023-09-07T05:17:35;11.90;;;9.90;;
36747;SDS011;22716;51.556;5.080;2023-09-07T05:20:04;14.50;;;8.45;;
36747;SDS011;22716;51.556;5.080;2023-09-07T05:22:34;11.63;;;9.57;;
36747;SDS011;22716;51.556;5.080;2023-09-07T05:25:09;14.07;;;9.23;;
36747;SDS011;22716;51.556;5.080;2023-09-07T05:27:38;16.53;;;9.90;;
36747;SDS011;22716;51.556;5.080;2023-09-07T05:30:07;10.13;;;8.82;;
36747;SDS011;22716;51.556;5.080;2023-09-07T05:32:36;12.65;;;8.80;;
36747;SDS011;22716;51.556;5.080;2023-09-07T05:35:07;11.63;;;8.48;;
36747;SDS011;22716;51.556;5.080;2023-09-07T05:37:37;10.27;;;9.18;;
36747;SDS011;22716;51.556;5.080;2023-09-07T05:40:09;12.53;;;8.30;;
36747;SDS011;22716;51.556;5.080;2023-09-07T05:42:38;11.48;;;9.15;;
36747;SDS011;22716;51.556;5.080;2023-09-07T05:45:07;17.08;;;10.18;;
36747;SDS011;22716;51.556;5.080;2023-09-07T05:47:36;13.77;;;9.73;;
36747;SDS011;22716;51.556;5.080;2023-09-07T05:50:05;16.40;;;9.95;;
36747;SDS011;22716;51.556;5.080;2023-09-07T05:52:34;14.07;;;8.70;;
36747;SDS011;22716;51.556;5.080;2023-09-07T05:55:03;11.70;;;8.52;;
36747;SDS011;22716;51.556;5.080;2023-09-07T05:57:36;17.25;;;8.70;;
36747;SDS011;22716;51.556;5.080;2023-09-07T06:00:05;9.98;;;7.65;;
36747;SDS011;22716;51.556;5.080;2023-09-07T06:02:35;9.60;;;7.97;;
36747;SDS011;22716;51.556;5.080;2023-09-07T06:05:04;9.90;;;8.73;;
36747;SDS011;22716;51.556;5.080;2023-09-07T06:07:33;10.87;;;8.97;;
36747;SDS011;22716;51.556;5.080;2023-09-07T06:10:02;10.27;;;8.60;;
36747;SDS011;22716;51.556;5.080;2023-09-07T06:12:35;11.50;;;8.47;;
36747;SDS011;22716;51.556;5.080;2023-09-07T06:15:04;33.58;;;10.98;;
36747;SDS011;22716;51.556;5.080;2023-09-07T06:17:34;9.77;;;7.57;;
36747;SDS011;22716;51.556;5.080;2023-09-07T06:20:03;11.20;;;9.17;;
36747;SDS011;22716;51.556;5.080;2023-09-07T06:22:33;12.60;;;8.93;;
36747;SDS011;22716;51.556;5.080;2023-09-07T06:25:02;16.67;;;8.57;;
36747;SDS011;22716;51.556;5.080;2023-09-07T06:27:31;12.30;;;8.97;;
36747;SDS011;22716;51.556;5.080;2023-09-07T06:30:03;11.07;;;8.07;;
36747;SDS011;22716;51.556;5.080;2023-09-07T06:32:33;10.23;;;8.17;;
36747;SDS011;22716;51.556;5.080;2023-09-07T06:35:02;12.90;;;9.47;;
36747;SDS011;22716;51.556;5.080;2023-09-07T06:37:31;11.50;;;8.73;;
36747;SDS011;22716;51.556;5.080;2023-09-07T06:40:01;14.63;;;8.52;;
36747;SDS011;22716;51.556;5.080;2023-09-07T06:42:30;12.98;;;9.20;;
36747;SDS011;22716;51.556;5.080;2023-09-07T06:44:59;8.57;;;7.67;;
36747;SDS011;22716;51.556;5.080;2023-09-07T06:47:30;14.20;;;8.60;;
36747;SDS011;22716;51.556;5.080;2023-09-07T06:49:59;11.20;;;9.27;;
36747;SDS011;22716;51.556;5.080;2023-09-07T06:52:27;8.63;;;7.63;;
36747;SDS011;22716;51.556;5.080;2023-09-07T06:54:56;11.53;;;8.43;;
36747;SDS011;22716;51.556;5.080;2023-09-07T06:57:24;11.65;;;8.20;;
36747;SDS011;22716;51.556;5.080;2023-09-07T06:59:53;12.93;;;8.60;;
36747;SDS011;22716;51.556;5.080;2023-09-07T07:02:22;14.10;;;8.43;;
36747;SDS011;22716;51.556;5.080;2023-09-07T07:04:53;10.27;;;7.87;;
36747;SDS011;22716;51.556;5.080;2023-09-07T07:07:22;11.40;;;8.53;;
36747;SDS011;22716;51.556;5.080;2023-09-07T07:09:50;14.20;;;7.87;;
36747;SDS011;22716;51.556;5.080;2023-09-07T07:12:19;30.43;;;8.80;;
36747;SDS011;22716;51.556;5.080;2023-09-07T07:14:48;11.88;;;8.13;;
36747;SDS011;22716;51.556;5.080;2023-09-07T07:17:16;14.67;;;8.30;;
36747;SDS011;22716;51.556;5.080;2023-09-07T07:19:45;13.80;;;9.03;;
36747;SDS011;22716;51.556;5.080;2023-09-07T07:22:16;19.43;;;9.33;;
36747;SDS011;22716;51.556;5.080;2023-09-07T07:24:45;13.40;;;9.23;;
36747;SDS011;22716;51.556;5.080;2023-09-07T07:27:14;13.23;;;9.93;;
36747;SDS011;22716;51.556;5.080;2023-09-07T07:29:42;12.23;;;9.43;;
36747;SDS011;22716;51.556;5.080;2023-09-07T07:32:11;10.37;;;8.73;;
36747;SDS011;22716;51.556;5.080;2023-09-07T07:34:39;13.40;;;9.47;;
36747;SDS011;22716;51.556;5.080;2023-09-07T07:37:08;11.07;;;8.20;;
36747;SDS011;22716;51.556;5.080;2023-09-07T07:39:40;12.90;;;9.57;;
36747;SDS011;22716;51.556;5.080;2023-09-07T07:42:09;15.30;;;9.63;;
36747;SDS011;22716;51.556;5.080;2023-09-07T07:44:37;12.63;;;9.38;;
36747;SDS011;22716;51.556;5.080;2023-09-07T07:47:06;17.73;;;8.80;;
36747;SDS011;22716;51.556;5.080;2023-09-07T07:49:34;16.77;;;9.30;;
36747;SDS011;22716;51.556;5.080;2023-09-07T07:52:03;14.65;;;9.40;;
36747;SDS011;22716;51.556;5.080;2023-09-07T07:54:33;14.13;;;9.67;;
36747;SDS011;22716;51.556;5.080;2023-09-07T07:57:04;11.77;;;8.70;;
36747;SDS011;22716;51.556;5.080;2023-09-07T07:59:33;14.90;;;9.43;;
36747;SDS011;22716;51.556;5.080;2023-09-07T08:02:03;13.43;;;8.97;;
36747;SDS011;22716;51.556;5.080;2023-09-07T08:04:32;12.60;;;9.45;;
36747;SDS011;22716;51.556;5.080;2023-09-07T08:07:01;11.67;;;8.53;;
36747;SDS011;22716;51.556;5.080;2023-09-07T08:09:33;15.40;;;7.47;;
36747;SDS011;22716;51.556;5.080;2023-09-07T08:12:06;10.75;;;8.82;;
36747;SDS011;22716;51.556;5.080;2023-09-07T08:14:35;13.05;;;8.77;;
36747;SDS011;22716;51.556;5.080;2023-09-07T08:17:03;9.88;;;7.53;;
36747;SDS011;22716;51.556;5.080;2023-09-07T08:19:33;10.43;;;8.37;;
36747;SDS011;22716;51.556;5.080;2023-09-07T08:22:04;13.23;;;8.63;;
36747;SDS011;22716;51.556;5.080;2023-09-07T08:24:34;12.00;;;8.35;;
36747;SDS011;22716;51.556;5.080;2023-09-07T08:27:03;9.10;;;7.20;;
36747;SDS011;22716;51.556;5.080;2023-09-07T08:29:36;11.27;;;7.50;;
36747;SDS011;22716;51.556;5.080;2023-09-07T08:32:05;10.38;;;7.30;;
36747;SDS011;22716;51.556;5.080;2023-09-07T08:34:37;7.90;;;6.30;;
36747;SDS011;22716;51.556;5.080;2023-09-07T08:37:06;8.18;;;6.32;;
36747;SDS011;22716;51.556;5.080;2023-09-07T08:39:34;10.73;;;6.00;;
36747;SDS011;22716;51.556;5.080;2023-09-07T08:42:07;10.63;;;5.50;;
36747;SDS011;22716;51.556;5.080;2023-09-07T08:44:36;6.88;;;5.85;;
36747;SDS011;22716;51.556;5.080;2023-09-07T08:47:07;8.63;;;5.33;;
36747;SDS011;22716;51.556;5.080;2023-09-07T08:49:37;7.07;;;5.38;;
36747;SDS011;22716;51.556;5.080;2023-09-07T08:52:06;8.77;;;5.80;;
36747;SDS011;22716;51.556;5.080;2023-09-07T08:54:35;6.75;;;5.28;;
36747;SDS011;22716;51.556;5.080;2023-09-07T08:57:08;6.97;;;5.03;;
36747;SDS011;22716;51.556;5.080;2023-09-07T08:59:39;9.10;;;5.03;;
36747;SDS011;22716;51.556;5.080;2023-09-07T09:02:08;9.05;;;5.72;;
36747;SDS011;22716;51.556;5.080;2023-09-07T09:04:37;11.02;;;4.97;;
36747;SDS011;22716;51.556;5.080;2023-09-07T09:07:07;7.32;;;4.90;;
36747;SDS011;22716;51.556;5.080;2023-09-07T09:09:35;6.03;;;4.13;;
36747;SDS011;22716;51.556;5.080;2023-09-07T09:12:11;7.13;;;4.47;;
36747;SDS011;22716;51.556;5.080;2023-09-07T09:14:41;5.93;;;4.10;;
36747;SDS011;22716;51.556;5.080;2023-09-07T09:17:11;7.40;;;4.70;;
36747;SDS011;22716;51.556;5.080;2023-09-07T09:19:41;7.38;;;3.67;;
36747;SDS011;22716;51.556;5.080;2023-09-07T09:22:12;7.22;;;4.28;;
36747;SDS011;22716;51.556;5.080;2023-09-07T09:24:40;6.88;;;3.75;;
36747;SDS011;22716;51.556;5.080;2023-09-07T09:27:12;10.68;;;4.03;;
36747;SDS011;22716;51.556;5.080;2023-09-07T09:29:40;7.60;;;3.45;;
36747;SDS011;22716;51.556;5.080;2023-09-07T09:32:09;7.47;;;3.50;;
36747;SDS011;22716;51.556;5.080;2023-09-07T09:34:38;8.00;;;3.72;;
36747;SDS011;22716;51.556;5.080;2023-09-07T09:37:12;8.00;;;3.72;;
36747;SDS011;22716;51.556;5.080;2023-09-07T09:39:42;8.70;;;3.67;;
36747;SDS011;22716;51.556;5.080;2023-09-07T09:42:14;7.25;;;3.92;;
36747;SDS011;22716;51.556;5.080;2023-09-07T09:44:43;12.35;;;3.90;;
36747;SDS011;22716;51.556;5.080;2023-09-07T09:47:13;11.95;;;3.83;;
36747;SDS011;22716;51.556;5.080;2023-09-07T09:49:42;11.23;;;3.75;;
36747;SDS011;22716;51.556;5.080;2023-09-07T09:52:11;4.50;;;3.30;;
36747;SDS011;22716;51.556;5.080;2023-09-07T09:54:42;9.63;;;3.50;;
36747;SDS011;22716;51.556;5.080;2023-09-07T09:57:13;9.40;;;3.70;;
36747;SDS011;22716;51.556;5.080;2023-09-07T09:59:42;7.70;;;3.22;;
36747;SDS011;22716;51.556;5.080;2023-09-07T10:02:12;8.88;;;3.42;;
36747;SDS011;22716;51.556;5.080;2023-09-07T10:04:41;6.47;;;3.50;;
36747;SDS011;22716;51.556;5.080;2023-09-07T10:07:10;6.03;;;3.45;;
36747;SDS011;22716;51.556;5.080;2023-09-07T10:09:38;5.18;;;3.65;;
36747;SDS011;22716;51.556;5.080;2023-09-07T10:12:11;6.97;;;3.97;;
36747;SDS011;22716;51.556;5.080;2023-09-07T10:14:42;8.98;;;4.10;;
36747;SDS011;22716;51.556;5.080;2023-09-07T10:17:21;8.57;;;3.50;;
36747;SDS011;22716;51.556;5.080;2023-09-07T10:20:01;4.07;;;3.67;;
36747;SDS011;22716;51.556;5.080;2023-09-07T10:22:30;6.43;;;3.92;;
36747;SDS011;22716;51.556;5.080;2023-09-07T10:24:59;5.75;;;3.35;;
36747;SDS011;22716;51.556;5.080;2023-09-07T10:27:38;7.05;;;3.75;;
36747;SDS011;22716;51.556;5.080;2023-09-07T10:30:10;7.53;;;3.90;;
36747;SDS011;22716;51.556;5.080;2023-09-07T10:32:44;5.53;;;3.75;;
36747;SDS011;22716;51.556;5.080;2023-09-07T10:35:14;6.47;;;3.05;;
36747;SDS011;22716;51.556;5.080;2023-09-07T10:37:44;6.15;;;3.90;;
36747;SDS011;22716;51.556;5.080;2023-09-07T10:40:18;4.90;;;3.20;;
36747;SDS011;22716;51.556;5.080;2023-09-07T10:42:50;5.68;;;3.25;;
36747;SDS011;22716;51.556;5.080;2023-09-07T10:45:30;6.50;;;3.13;;
36747;SDS011;22716;51.556;5.080;2023-09-07T10:47:58;5.60;;;3.20;;
36747;SDS011;22716;51.556;5.080;2023-09-07T10:50:27;9.35;;;3.60;;
36747;SDS011;22716;51.556;5.080;2023-09-07T10:52:55;5.45;;;3.63;;
36747;SDS011;22716;51.556;5.080;2023-09-07T10:55:24;11.70;;;3.85;;
36747;SDS011;22716;51.556;5.080;2023-09-07T10:57:56;7.65;;;3.60;;
36747;SDS011;22716;51.556;5.080;2023-09-07T11:00:25;9.95;;;4.30;;
36747;SDS011;22716;51.556;5.080;2023-09-07T11:02:54;7.43;;;4.03;;
36747;SDS011;22716;51.556;5.080;2023-09-07T11:05:22;7.53;;;3.60;;
36747;SDS011;22716;51.556;5.080;2023-09-07T11:07:52;6.20;;;4.00;;
36747;SDS011;22716;51.556;5.080;2023-09-07T11:10:24;7.97;;;3.58;;
36747;SDS011;22716;51.556;5.080;2023-09-07T11:12:56;8.02;;;3.85;;
36747;SDS011;22716;51.556;5.080;2023-09-07T11:15:25;7.80;;;3.60;;
36747;SDS011;22716;51.556;5.080;2023-09-07T11:17:53;5.63;;;3.33;;
36747;SDS011;22716;51.556;5.080;2023-09-07T11:20:22;5.60;;;3.33;;
36747;SDS011;22716;51.556;5.080;2023-09-07T11:22:53;7.68;;;4.07;;
36747;SDS011;22716;51.556;5.080;2023-09-07T11:25:22;10.18;;;3.63;;
36747;SDS011;22716;51.556;5.080;2023-09-07T11:27:51;6.70;;;3.13;;
36747;SDS011;22716;51.556;5.080;2023-09-07T11:30:25;9.90;;;4.15;;
36747;SDS011;22716;51.556;5.080;2023-09-07T11:32:59;4.18;;;3.47;;
36747;SDS011;22716;51.556;5.080;2023-09-07T11:35:29;7.03;;;4.25;;
36747;SDS011;22716;51.556;5.080;2023-09-07T11:37:59;5.07;;;3.65;;
36747;SDS011;22716;51.556;5.080;2023-09-07T11:40:29;6.68;;;3.30;;
36747;SDS011;22716;51.556;5.080;2023-09-07T11:42:57;9.57;;;3.42;;
36747;SDS011;22716;51.556;5.080;2023-09-07T11:45:29;6.63;;;3.88;;
36747;SDS011;22716;51.556;5.080;2023-09-07T11:47:58;3.83;;;3.10;;
36747;SDS011;22716;51.556;5.080;2023-09-07T11:50:26;5.75;;;3.30;;
36747;SDS011;22716;51.556;5.080;2023-09-07T11:52:55;8.20;;;3.30;;
36747;SDS011;22716;51.556;5.080;2023-09-07T11:55:24;4.28;;;2.85;;
36747;SDS011;22716;51.556;5.080;2023-09-07T11:57:53;4.82;;;3.53;;
36747;SDS011;22716;51.556;5.080;2023-09-07T12:00:22;4.03;;;2.88;;
36747;SDS011;22716;51.556;5.080;2023-09-07T12:02:54;6.70;;;2.75;;
36747;SDS011;22716;51.556;5.080;2023-09-07T12:05:23;6.72;;;3.65;;
36747;SDS011;22716;51.556;5.080;2023-09-07T12:07:51;6.50;;;3.28;;
36747;SDS011;22716;51.556;5.080;2023-09-07T12:10:20;6.68;;;3.53;;
36747;SDS011;22716;51.556;5.080;2023-09-07T12:12:49;5.10;;;3.42;;
36747;SDS011;22716;51.556;5.080;2023-09-07T12:15:17;6.83;;;3.43;;
36747;SDS011;22716;51.556;5.080;2023-09-07T12:17:46;5.00;;;3.03;;
36747;SDS011;22716;51.556;5.080;2023-09-07T12:20:22;5.75;;;3.35;;
36747;SDS011;22716;51.556;5.080;2023-09-07T12:22:51;5.63;;;3.67;;
36747;SDS011;22716;51.556;5.080;2023-09-07T12:25:19;6.50;;;2.97;;
36747;SDS011;22716;51.556;5.080;2023-09-07T12:27:48;4.63;;;3.30;;
36747;SDS011;22716;51.556;5.080;2023-09-07T12:30:17;4.85;;;3.25;;
36747;SDS011;22716;51.556;5.080;2023-09-07T12:32:47;7.13;;;3.50;;
36747;SDS011;22716;51.556;5.080;2023-09-07T12:35:16;7.93;;;3.00;;
36747;SDS011;22716;51.556;5.080;2023-09-07T12:37:48;7.15;;;3.75;;
36747;SDS011;22716;51.556;5.080;2023-09-07T12:40:17;3.90;;;2.92;;
36747;SDS011;22716;51.556;5.080;2023-09-07T12:42:46;3.50;;;3.00;;
36747;SDS011;22716;51.556;5.080;2023-09-07T12:45:14;7.85;;;3.42;;
36747;SDS011;22716;51.556;5.080;2023-09-07T12:47:43;7.32;;;3.65;;
36747;SDS011;22716;51.556;5.080;2023-09-07T12:50:11;6.03;;;3.70;;
36747;SDS011;22716;51.556;5.080;2023-09-07T12:52:40;7.85;;;3.03;;
36747;SDS011;22716;51.556;5.080;2023-09-07T12:55:11;6.80;;;3.97;;
36747;SDS011;22716;51.556;5.080;2023-09-07T12:57:41;4.20;;;3.13;;
36747;SDS011;22716;51.556;5.080;2023-09-07T13:00:10;5.45;;;3.10;;
36747;SDS011;22716;51.556;5.080;2023-09-07T13:02:40;5.45;;;3.17;;
36747;SDS011;22716;51.556;5.080;2023-09-07T13:05:08;5.88;;;3.03;;
36747;SDS011;22716;51.556;5.080;2023-09-07T13:07:37;8.38;;;3.72;;
36747;SDS011;22716;51.556;5.080;2023-09-07T13:10:06;8.27;;;3.28;;
36747;SDS011;22716;51.556;5.080;2023-09-07T13:12:39;6.35;;;3.33;;
36747;SDS011;22716;51.556;5.080;2023-09-07T13:15:08;4.97;;;3.08;;
36747;SDS011;22716;51.556;5.080;2023-09-07T13:17:37;5.90;;;3.50;;
36747;SDS011;22716;51.556;5.080;2023-09-07T13:20:06;4.93;;;3.33;;
36747;SDS011;22716;51.556;5.080;2023-09-07T13:22:37;5.00;;;3.50;;
36747;SDS011;22716;51.556;5.080;2023-09-07T13:25:06;6.22;;;3.00;;
36747;SDS011;22716;51.556;5.080;2023-09-07T13:27:36;6.53;;;3.03;;
36747;SDS011;22716;51.556;5.080;2023-09-07T13:30:07;3.90;;;3.07;;
36747;SDS011;22716;51.556;5.080;2023-09-07T13:32:37;3.53;;;2.92;;
36747;SDS011;22716;51.556;5.080;2023-09-07T13:35:06;6.78;;;3.78;;
36747;SDS011;22716;51.556;5.080;2023-09-07T13:37:35;5.95;;;3.28;;
36747;SDS011;22716;51.556;5.080;2023-09-07T13:40:05;7.88;;;3.85;;
36747;SDS011;22716;51.556;5.080;2023-09-07T13:42:34;5.30;;;3.33;;
36747;SDS011;22716;51.556;5.080;2023-09-07T13:45:07;8.30;;;3.70;;
36747;SDS011;22716;51.556;5.080;2023-09-07T13:47:36;6.00;;;2.70;;
36747;SDS011;22716;51.556;5.080;2023-09-07T13:50:06;5.28;;;3.22;;
36747;SDS011;22716;51.556;5.080;2023-09-07T13:52:35;4.97;;;3.20;;
36747;SDS011;22716;51.556;5.080;2023-09-07T13:55:05;9.23;;;3.85;;
36747;SDS011;22716;51.556;5.080;2023-09-07T13:57:33;4.30;;;3.33;;
36747;SDS011;22716;51.556;5.080;2023-09-07T14:00:03;7.10;;;3.63;;
36747;SDS011;22716;51.556;5.080;2023-09-07T14:02:35;4.63;;;3.38;;
36747;SDS011;22716;51.556;5.080;2023-09-07T14:05:04;4.95;;;3.30;;
36747;SDS011;22716;51.556;5.080;2023-09-07T14:07:33;5.13;;;3.15;;
36747;SDS011;22716;51.556;5.080;2023-09-07T14:10:02;5.35;;;3.17;;
36747;SDS011;22716;51.556;5.080;2023-09-07T14:12:32;7.05;;;2.92;;
36747;SDS011;22716;51.556;5.080;2023-09-07T14:15:00;3.15;;;2.70;;
36747;SDS011;22716;51.556;5.080;2023-09-07T14:17:29;8.65;;;3.17;;
36747;SDS011;22716;51.556;5.080;2023-09-07T14:20:00;7.07;;;2.95;;
36747;SDS011;22716;51.556;5.080;2023-09-07T14:22:29;4.18;;;2.88;;
36747;SDS011;22716;51.556;5.080;2023-09-07T14:24:58;8.52;;;3.58;;
36747;SDS011;22716;51.556;5.080;2023-09-07T14:27:28;8.50;;;3.33;;
36747;SDS011;22716;51.556;5.080;2023-09-07T14:29:56;3.63;;;3.28;;
36747;SDS011;22716;51.556;5.080;2023-09-07T14:32:25;6.30;;;3.20;;
36747;SDS011;22716;51.556;5.080;2023-09-07T14:34:53;7.90;;;3.60;;
36747;SDS011;22716;51.556;5.080;2023-09-07T14:37:24;14.18;;;3.03;;
36747;SDS011;22716;51.556;5.080;2023-09-07T14:39:53;6.43;;;3.20;;
36747;SDS011;22716;51.556;5.080;2023-09-07T14:42:24;4.57;;;3.38;;
36747;SDS011;22716;51.556;5.080;2023-09-07T14:44:53;5.82;;;3.10;;
36747;SDS011;22716;51.556;5.080;2023-09-07T14:47:23;3.72;;;3.03;;
36747;SDS011;22716;51.556;5.080;2023-09-07T14:49:51;7.88;;;3.55;;
36747;SDS011;22716;51.556;5.080;2023-09-07T14:52:20;4.78;;;3.38;;